sensor_id;sensor_type;location;lat;lon;timestamp;P1;durP1;ratioP1;P2;durP2;ratioP2
22144;SDS011;11238;48.730;11.566;2023-02-02T00:01:19;7.80;;;2.70;;
22144;SDS011;11238;48.730;11.566;2023-02-02T00:03:46;11.82;;;2.70;;
22144;SDS011;11238;48.730;11.566;2023-02-02T00:06:15;11.20;;;3.33;;
22144;SDS011;11238;48.730;11.566;2023-02-02T00:08:45;11.32;;;2.70;;
22144;SDS011;11238;48.730;11.566;2023-02-02T00:11:12;13.98;;;3.25;;
22144;SDS011;11238;48.730;11.566;2023-02-02T00:13:38;14.38;;;3.45;;
22144;SDS011;11238;48.730;11.566;2023-02-02T00:18:59;12.18;;;2.92;;
22144;SDS011;11238;48.730;11.566;2023-02-02T00:21:31;12.40;;;3.05;;
22144;SDS011;11238;48.730;11.566;2023-02-02T00:23:56;15.70;;;3.45;;
22144;SDS011;11238;48.730;11.566;2023-02-02T00:26:22;11.00;;;3.05;;
22144;SDS011;11238;48.730;11.566;2023-02-02T00:28:49;12.02;;;3.22;;
22144;SDS011;11238;48.730;11.566;2023-02-02T00:31:15;14.82;;;3.33;;
22144;SDS011;11238;48.730;11.566;2023-02-02T00:33:47;7.93;;;3.42;;
22144;SDS011;11238;48.730;11.566;2023-02-02T00:38:40;14.07;;;2.83;;
22144;SDS011;11238;48.730;11.566;2023-02-02T00:41:06;10.05;;;3.13;;
22144;SDS011;11238;48.730;11.566;2023-02-02T00:43:32;8.70;;;3.30;;
22144;SDS011;11238;48.730;11.566;2023-02-02T00:45:58;8.70;;;2.80;;
22144;SDS011;11238;48.730;11.566;2023-02-02T00:48:24;13.45;;;3.20;;
22144;SDS011;11238;48.730;11.566;2023-02-02T00:50:50;13.15;;;3.10;;
22144;SDS011;11238;48.730;11.566;2023-02-02T00:53:17;11.60;;;3.00;;
22144;SDS011;11238;48.730;11.566;2023-02-02T00:55:43;8.68;;;2.63;;
22144;SDS011;11238;48.730;11.566;2023-02-02T00:58:09;10.73;;;3.10;;
22144;SDS011;11238;48.730;11.566;2023-02-02T01:00:35;7.88;;;2.95;;
22144;SDS011;11238;48.730;11.566;2023-02-02T01:03:02;12.55;;;2.75;;
22144;SDS011;11238;48.730;11.566;2023-02-02T01:05:29;12.80;;;3.50;;
22144;SDS011;11238;48.730;11.566;2023-02-02T01:07:55;11.23;;;3.30;;
22144;SDS011;11238;48.730;11.566;2023-02-02T01:10:22;12.77;;;3.25;;
22144;SDS011;11238;48.730;11.566;2023-02-02T01:12:47;8.73;;;2.58;;
22144;SDS011;11238;48.730;11.566;2023-02-02T01:15:13;12.85;;;2.97;;
22144;SDS011;11238;48.730;11.566;2023-02-02T01:17:39;12.07;;;3.17;;
22144;SDS011;11238;48.730;11.566;2023-02-02T01:20:06;11.05;;;3.47;;
22144;SDS011;11238;48.730;11.566;2023-02-02T01:22:32;10.73;;;3.10;;
22144;SDS011;11238;48.730;11.566;2023-02-02T01:24:59;11.10;;;3.40;;
22144;SDS011;11238;48.730;11.566;2023-02-02T01:27:26;11.48;;;3.40;;
22144;SDS011;11238;48.730;11.566;2023-02-02T01:29:51;14.10;;;2.88;;
22144;SDS011;11238;48.730;11.566;2023-02-02T01:32:17;13.35;;;3.45;;
22144;SDS011;11238;48.730;11.566;2023-02-02T01:34:44;17.48;;;3.65;;
22144;SDS011;11238;48.730;11.566;2023-02-02T01:37:13;10.27;;;3.42;;
22144;SDS011;11238;48.730;11.566;2023-02-02T01:39:40;18.90;;;3.38;;
22144;SDS011;11238;48.730;11.566;2023-02-02T01:42:11;13.23;;;3.20;;
22144;SDS011;11238;48.730;11.566;2023-02-02T01:47:17;9.48;;;2.97;;
22144;SDS011;11238;48.730;11.566;2023-02-02T01:49:46;13.50;;;3.38;;
22144;SDS011;11238;48.730;11.566;2023-02-02T01:52:12;11.52;;;3.35;;
22144;SDS011;11238;48.730;11.566;2023-02-02T01:54:44;10.35;;;2.90;;
22144;SDS011;11238;48.730;11.566;2023-02-02T01:57:32;12.65;;;3.13;;
22144;SDS011;11238;48.730;11.566;2023-02-02T02:00:04;11.27;;;3.55;;
22144;SDS011;11238;48.730;11.566;2023-02-02T02:02:38;10.15;;;2.88;;
22144;SDS011;11238;48.730;11.566;2023-02-02T02:05:08;10.45;;;2.72;;
22144;SDS011;11238;48.730;11.566;2023-02-02T02:07:37;10.05;;;2.70;;
22144;SDS011;11238;48.730;11.566;2023-02-02T02:10:08;9.20;;;2.67;;
22144;SDS011;11238;48.730;11.566;2023-02-02T02:12:34;6.15;;;2.90;;
22144;SDS011;11238;48.730;11.566;2023-02-02T02:15:02;11.65;;;3.05;;
22144;SDS011;11238;48.730;11.566;2023-02-02T02:23:43;11.27;;;3.20;;
22144;SDS011;11238;48.730;11.566;2023-02-02T02:30:28;9.63;;;3.15;;
22144;SDS011;11238;48.730;11.566;2023-02-02T02:33:14;8.85;;;2.75;;
22144;SDS011;11238;48.730;11.566;2023-02-02T02:35:56;11.57;;;2.88;;
22144;SDS011;11238;48.730;11.566;2023-02-02T02:38:46;7.57;;;2.88;;
22144;SDS011;11238;48.730;11.566;2023-02-02T02:41:18;9.15;;;2.70;;
22144;SDS011;11238;48.730;11.566;2023-02-02T02:43:49;10.02;;;2.80;;
22144;SDS011;11238;48.730;11.566;2023-02-02T02:46:19;9.07;;;3.00;;
22144;SDS011;11238;48.730;11.566;2023-02-02T02:48:46;10.27;;;2.80;;
22144;SDS011;11238;48.730;11.566;2023-02-02T02:54:31;12.38;;;2.97;;
22144;SDS011;11238;48.730;11.566;2023-02-02T03:02:52;12.23;;;3.13;;
22144;SDS011;11238;48.730;11.566;2023-02-02T03:05:38;8.65;;;2.90;;
22144;SDS011;11238;48.730;11.566;2023-02-02T03:11:15;16.17;;;3.40;;
22144;SDS011;11238;48.730;11.566;2023-02-02T03:13:42;10.88;;;3.38;;
22144;SDS011;11238;48.730;11.566;2023-02-02T03:16:09;11.35;;;3.00;;
22144;SDS011;11238;48.730;11.566;2023-02-02T03:18:57;9.77;;;3.20;;
22144;SDS011;11238;48.730;11.566;2023-02-02T03:21:23;10.93;;;2.58;;
22144;SDS011;11238;48.730;11.566;2023-02-02T03:23:49;8.15;;;2.70;;
22144;SDS011;11238;48.730;11.566;2023-02-02T03:26:15;11.52;;;2.63;;
22144;SDS011;11238;48.730;11.566;2023-02-02T03:28:41;11.80;;;2.72;;
22144;SDS011;11238;48.730;11.566;2023-02-02T03:31:06;9.13;;;2.80;;
22144;SDS011;11238;48.730;11.566;2023-02-02T03:33:34;8.10;;;2.55;;
22144;SDS011;11238;48.730;11.566;2023-02-02T03:36:01;12.68;;;2.72;;
22144;SDS011;11238;48.730;11.566;2023-02-02T03:38:27;7.15;;;2.42;;
22144;SDS011;11238;48.730;11.566;2023-02-02T03:40:52;5.85;;;2.38;;
22144;SDS011;11238;48.730;11.566;2023-02-02T03:43:19;9.65;;;2.97;;
22144;SDS011;11238;48.730;11.566;2023-02-02T03:45:58;9.40;;;2.58;;
22144;SDS011;11238;48.730;11.566;2023-02-02T03:48:29;7.13;;;2.53;;
22144;SDS011;11238;48.730;11.566;2023-02-02T03:50:55;8.60;;;2.42;;
22144;SDS011;11238;48.730;11.566;2023-02-02T03:53:21;9.30;;;2.65;;
22144;SDS011;11238;48.730;11.566;2023-02-02T03:55:48;10.43;;;3.00;;
22144;SDS011;11238;48.730;11.566;2023-02-02T03:58:14;8.68;;;2.47;;
22144;SDS011;11238;48.730;11.566;2023-02-02T04:00:40;8.00;;;2.30;;
22144;SDS011;11238;48.730;11.566;2023-02-02T04:03:06;7.90;;;2.33;;
22144;SDS011;11238;48.730;11.566;2023-02-02T04:05:32;15.77;;;2.72;;
22144;SDS011;11238;48.730;11.566;2023-02-02T04:07:57;7.68;;;2.38;;
22144;SDS011;11238;48.730;11.566;2023-02-02T04:10:23;7.88;;;2.50;;
22144;SDS011;11238;48.730;11.566;2023-02-02T04:12:49;7.70;;;2.53;;
22144;SDS011;11238;48.730;11.566;2023-02-02T04:15:15;6.93;;;2.80;;
22144;SDS011;11238;48.730;11.566;2023-02-02T04:17:41;7.72;;;2.70;;
22144;SDS011;11238;48.730;11.566;2023-02-02T04:20:07;11.75;;;2.60;;
22144;SDS011;11238;48.730;11.566;2023-02-02T04:22:34;14.27;;;3.17;;
22144;SDS011;11238;48.730;11.566;2023-02-02T04:25:00;8.90;;;2.70;;
22144;SDS011;11238;48.730;11.566;2023-02-02T04:27:26;6.85;;;2.60;;
22144;SDS011;11238;48.730;11.566;2023-02-02T04:29:51;7.25;;;2.83;;
22144;SDS011;11238;48.730;11.566;2023-02-02T04:32:17;9.43;;;2.90;;
22144;SDS011;11238;48.730;11.566;2023-02-02T04:34:43;4.88;;;2.38;;
22144;SDS011;11238;48.730;11.566;2023-02-02T04:37:09;13.68;;;3.13;;
22144;SDS011;11238;48.730;11.566;2023-02-02T04:39:36;7.65;;;2.97;;
22144;SDS011;11238;48.730;11.566;2023-02-02T04:42:01;12.25;;;3.55;;
22144;SDS011;11238;48.730;11.566;2023-02-02T04:44:27;7.32;;;3.00;;
22144;SDS011;11238;48.730;11.566;2023-02-02T04:46:53;5.97;;;2.50;;
22144;SDS011;11238;48.730;11.566;2023-02-02T04:49:19;10.85;;;3.28;;
22144;SDS011;11238;48.730;11.566;2023-02-02T04:51:46;7.38;;;2.78;;
22144;SDS011;11238;48.730;11.566;2023-02-02T04:54:12;9.02;;;3.08;;
22144;SDS011;11238;48.730;11.566;2023-02-02T04:56:38;7.53;;;2.53;;
22144;SDS011;11238;48.730;11.566;2023-02-02T04:59:04;7.35;;;2.95;;
22144;SDS011;11238;48.730;11.566;2023-02-02T05:01:30;11.90;;;3.45;;
22144;SDS011;11238;48.730;11.566;2023-02-02T05:03:56;10.93;;;2.90;;
22144;SDS011;11238;48.730;11.566;2023-02-02T05:06:22;12.13;;;3.28;;
22144;SDS011;11238;48.730;11.566;2023-02-02T05:08:48;5.78;;;3.15;;
22144;SDS011;11238;48.730;11.566;2023-02-02T05:11:19;9.25;;;3.20;;
22144;SDS011;11238;48.730;11.566;2023-02-02T05:13:47;10.18;;;3.17;;
22144;SDS011;11238;48.730;11.566;2023-02-02T05:16:15;10.05;;;3.20;;
22144;SDS011;11238;48.730;11.566;2023-02-02T05:18:41;11.57;;;2.97;;
22144;SDS011;11238;48.730;11.566;2023-02-02T05:21:08;7.53;;;3.17;;
22144;SDS011;11238;48.730;11.566;2023-02-02T05:23:34;11.85;;;3.15;;
22144;SDS011;11238;48.730;11.566;2023-02-02T05:26:00;9.98;;;3.08;;
22144;SDS011;11238;48.730;11.566;2023-02-02T05:28:25;10.23;;;3.30;;
22144;SDS011;11238;48.730;11.566;2023-02-02T05:30:51;9.52;;;3.45;;
22144;SDS011;11238;48.730;11.566;2023-02-02T05:33:17;6.32;;;3.10;;
22144;SDS011;11238;48.730;11.566;2023-02-02T05:35:44;10.40;;;3.20;;
22144;SDS011;11238;48.730;11.566;2023-02-02T05:38:14;11.20;;;3.60;;
22144;SDS011;11238;48.730;11.566;2023-02-02T05:40:40;11.05;;;3.10;;
22144;SDS011;11238;48.730;11.566;2023-02-02T05:43:07;11.90;;;3.50;;
22144;SDS011;11238;48.730;11.566;2023-02-02T05:45:32;11.05;;;3.08;;
22144;SDS011;11238;48.730;11.566;2023-02-02T05:47:58;11.25;;;3.58;;
22144;SDS011;11238;48.730;11.566;2023-02-02T05:50:24;9.75;;;3.40;;
22144;SDS011;11238;48.730;11.566;2023-02-02T05:53:00;7.90;;;3.45;;
22144;SDS011;11238;48.730;11.566;2023-02-02T05:55:27;10.25;;;3.20;;
22144;SDS011;11238;48.730;11.566;2023-02-02T05:57:52;9.70;;;3.00;;
22144;SDS011;11238;48.730;11.566;2023-02-02T06:00:18;8.82;;;2.90;;
22144;SDS011;11238;48.730;11.566;2023-02-02T06:02:44;12.30;;;3.75;;
22144;SDS011;11238;48.730;11.566;2023-02-02T06:05:09;9.40;;;3.10;;
22144;SDS011;11238;48.730;11.566;2023-02-02T06:07:35;11.50;;;3.03;;
22144;SDS011;11238;48.730;11.566;2023-02-02T06:10:01;10.07;;;3.45;;
22144;SDS011;11238;48.730;11.566;2023-02-02T06:12:26;8.98;;;3.00;;
22144;SDS011;11238;48.730;11.566;2023-02-02T06:14:52;10.23;;;3.05;;
22144;SDS011;11238;48.730;11.566;2023-02-02T06:17:18;8.57;;;3.25;;
22144;SDS011;11238;48.730;11.566;2023-02-02T06:19:44;7.80;;;3.08;;
22144;SDS011;11238;48.730;11.566;2023-02-02T06:22:10;8.18;;;2.97;;
22144;SDS011;11238;48.730;11.566;2023-02-02T06:24:38;10.70;;;3.55;;
22144;SDS011;11238;48.730;11.566;2023-02-02T06:27:04;7.38;;;2.97;;
22144;SDS011;11238;48.730;11.566;2023-02-02T06:29:30;7.88;;;2.60;;
22144;SDS011;11238;48.730;11.566;2023-02-02T06:31:55;6.95;;;3.30;;
22144;SDS011;11238;48.730;11.566;2023-02-02T06:34:21;7.95;;;2.75;;
22144;SDS011;11238;48.730;11.566;2023-02-02T06:36:47;6.28;;;2.92;;
22144;SDS011;11238;48.730;11.566;2023-02-02T06:39:13;9.50;;;3.15;;
22144;SDS011;11238;48.730;11.566;2023-02-02T06:41:38;6.97;;;2.80;;
22144;SDS011;11238;48.730;11.566;2023-02-02T06:44:04;7.75;;;2.80;;
22144;SDS011;11238;48.730;11.566;2023-02-02T06:46:30;9.93;;;2.90;;
22144;SDS011;11238;48.730;11.566;2023-02-02T06:48:56;9.13;;;2.45;;
22144;SDS011;11238;48.730;11.566;2023-02-02T06:51:22;5.93;;;2.70;;
22144;SDS011;11238;48.730;11.566;2023-02-02T06:53:48;7.28;;;3.00;;
22144;SDS011;11238;48.730;11.566;2023-02-02T06:56:14;14.88;;;2.95;;
22144;SDS011;11238;48.730;11.566;2023-02-02T06:58:40;7.30;;;2.60;;
22144;SDS011;11238;48.730;11.566;2023-02-02T07:01:07;5.63;;;2.53;;
22144;SDS011;11238;48.730;11.566;2023-02-02T07:03:35;7.93;;;2.70;;
22144;SDS011;11238;48.730;11.566;2023-02-02T07:06:14;6.43;;;2.50;;
22144;SDS011;11238;48.730;11.566;2023-02-02T07:08:41;6.40;;;2.42;;
22144;SDS011;11238;48.730;11.566;2023-02-02T07:11:08;5.97;;;2.58;;
22144;SDS011;11238;48.730;11.566;2023-02-02T07:13:34;4.75;;;2.30;;
22144;SDS011;11238;48.730;11.566;2023-02-02T07:16:01;6.60;;;2.50;;
22144;SDS011;11238;48.730;11.566;2023-02-02T07:18:31;6.53;;;2.25;;
22144;SDS011;11238;48.730;11.566;2023-02-02T07:20:58;9.10;;;2.28;;
22144;SDS011;11238;48.730;11.566;2023-02-02T07:23:25;9.10;;;2.20;;
22144;SDS011;11238;48.730;11.566;2023-02-02T07:26:10;4.43;;;2.30;;
22144;SDS011;11238;48.730;11.566;2023-02-02T07:28:37;3.30;;;2.30;;
22144;SDS011;11238;48.730;11.566;2023-02-02T07:31:17;3.38;;;2.08;;
22144;SDS011;11238;48.730;11.566;2023-02-02T07:33:45;3.25;;;2.20;;
22144;SDS011;11238;48.730;11.566;2023-02-02T07:36:13;6.47;;;2.53;;
22144;SDS011;11238;48.730;11.566;2023-02-02T07:38:40;6.53;;;2.80;;
22144;SDS011;11238;48.730;11.566;2023-02-02T07:41:07;6.95;;;2.50;;
22144;SDS011;11238;48.730;11.566;2023-02-02T07:43:33;7.82;;;2.40;;
22144;SDS011;11238;48.730;11.566;2023-02-02T07:46:00;3.00;;;2.15;;
22144;SDS011;11238;48.730;11.566;2023-02-02T07:48:30;5.82;;;2.60;;
22144;SDS011;11238;48.730;11.566;2023-02-02T07:51:02;5.60;;;2.28;;
22144;SDS011;11238;48.730;11.566;2023-02-02T07:53:30;4.70;;;2.40;;
22144;SDS011;11238;48.730;11.566;2023-02-02T07:56:09;5.93;;;2.38;;
22144;SDS011;11238;48.730;11.566;2023-02-02T07:58:54;7.10;;;2.40;;
22144;SDS011;11238;48.730;11.566;2023-02-02T08:01:21;7.40;;;2.28;;
22144;SDS011;11238;48.730;11.566;2023-02-02T08:03:50;7.20;;;2.30;;
22144;SDS011;11238;48.730;11.566;2023-02-02T08:06:24;3.67;;;2.13;;
22144;SDS011;11238;48.730;11.566;2023-02-02T08:08:52;5.90;;;2.40;;
22144;SDS011;11238;48.730;11.566;2023-02-02T08:11:19;5.25;;;2.55;;
22144;SDS011;11238;48.730;11.566;2023-02-02T08:13:56;4.57;;;2.30;;
22144;SDS011;11238;48.730;11.566;2023-02-02T08:16:24;6.30;;;2.38;;
22144;SDS011;11238;48.730;11.566;2023-02-02T08:18:51;4.68;;;2.30;;
22144;SDS011;11238;48.730;11.566;2023-02-02T08:21:17;5.35;;;2.10;;
22144;SDS011;11238;48.730;11.566;2023-02-02T08:23:43;7.07;;;1.90;;
22144;SDS011;11238;48.730;11.566;2023-02-02T08:26:34;8.30;;;2.50;;
22144;SDS011;11238;48.730;11.566;2023-02-02T08:29:02;7.57;;;2.10;;
22144;SDS011;11238;48.730;11.566;2023-02-02T08:31:34;3.78;;;1.98;;
22144;SDS011;11238;48.730;11.566;2023-02-02T08:34:02;2.95;;;2.10;;
22144;SDS011;11238;48.730;11.566;2023-02-02T08:36:29;3.33;;;1.95;;
22144;SDS011;11238;48.730;11.566;2023-02-02T08:38:58;3.63;;;2.20;;
22144;SDS011;11238;48.730;11.566;2023-02-02T08:41:34;8.98;;;2.28;;
22144;SDS011;11238;48.730;11.566;2023-02-02T08:44:03;3.08;;;1.60;;
22144;SDS011;11238;48.730;11.566;2023-02-02T08:46:31;6.95;;;2.00;;
22144;SDS011;11238;48.730;11.566;2023-02-02T08:49:19;5.63;;;1.88;;
22144;SDS011;11238;48.730;11.566;2023-02-02T08:51:44;3.60;;;2.00;;
22144;SDS011;11238;48.730;11.566;2023-02-02T08:54:11;4.05;;;1.98;;
22144;SDS011;11238;48.730;11.566;2023-02-02T08:56:59;6.55;;;1.90;;
22144;SDS011;11238;48.730;11.566;2023-02-02T08:59:25;2.20;;;1.63;;
22144;SDS011;11238;48.730;11.566;2023-02-02T09:01:51;4.47;;;1.90;;
22144;SDS011;11238;48.730;11.566;2023-02-02T09:04:17;2.47;;;1.88;;
22144;SDS011;11238;48.730;11.566;2023-02-02T09:06:43;6.57;;;2.10;;
22144;SDS011;11238;48.730;11.566;2023-02-02T09:09:12;2.03;;;1.80;;
22144;SDS011;11238;48.730;11.566;2023-02-02T09:11:40;5.60;;;1.85;;
22144;SDS011;11238;48.730;11.566;2023-02-02T09:14:06;4.93;;;1.77;;
22144;SDS011;11238;48.730;11.566;2023-02-02T09:16:33;2.50;;;1.63;;
22144;SDS011;11238;48.730;11.566;2023-02-02T09:18:59;3.55;;;1.80;;
22144;SDS011;11238;48.730;11.566;2023-02-02T09:21:25;3.42;;;1.88;;
22144;SDS011;11238;48.730;11.566;2023-02-02T09:23:52;2.42;;;1.73;;
22144;SDS011;11238;48.730;11.566;2023-02-02T09:26:19;3.92;;;1.75;;
22144;SDS011;11238;48.730;11.566;2023-02-02T09:28:57;5.05;;;1.83;;
22144;SDS011;11238;48.730;11.566;2023-02-02T09:31:30;3.05;;;1.40;;
22144;SDS011;11238;48.730;11.566;2023-02-02T09:34:02;4.68;;;1.70;;
22144;SDS011;11238;48.730;11.566;2023-02-02T09:36:29;4.30;;;1.70;;
22144;SDS011;11238;48.730;11.566;2023-02-02T09:38:55;4.25;;;1.77;;
22144;SDS011;11238;48.730;11.566;2023-02-02T09:44:25;2.55;;;1.73;;
22144;SDS011;11238;48.730;11.566;2023-02-02T09:48:04;3.42;;;1.83;;
22144;SDS011;11238;48.730;11.566;2023-02-02T09:50:30;3.90;;;1.88;;
22144;SDS011;11238;48.730;11.566;2023-02-02T09:55:47;3.58;;;1.90;;
22144;SDS011;11238;48.730;11.566;2023-02-02T10:00:59;5.32;;;2.10;;
22144;SDS011;11238;48.730;11.566;2023-02-02T10:03:36;4.18;;;2.20;;
22144;SDS011;11238;48.730;11.566;2023-02-02T10:06:32;3.80;;;2.05;;
22144;SDS011;11238;48.730;11.566;2023-02-02T10:11:35;3.85;;;2.15;;
22144;SDS011;11238;48.730;11.566;2023-02-02T10:14:21;4.88;;;2.03;;
22144;SDS011;11238;48.730;11.566;2023-02-02T10:16:52;6.15;;;2.50;;
22144;SDS011;11238;48.730;11.566;2023-02-02T10:19:19;7.90;;;2.38;;
22144;SDS011;11238;48.730;11.566;2023-02-02T10:21:59;4.75;;;2.15;;
22144;SDS011;11238;48.730;11.566;2023-02-02T10:24:38;4.53;;;2.40;;
22144;SDS011;11238;48.730;11.566;2023-02-02T10:27:05;5.57;;;2.25;;
22144;SDS011;11238;48.730;11.566;2023-02-02T10:29:46;4.85;;;2.30;;
22144;SDS011;11238;48.730;11.566;2023-02-02T10:37:37;4.57;;;2.60;;
22144;SDS011;11238;48.730;11.566;2023-02-02T10:46:18;5.72;;;2.10;;
22144;SDS011;11238;48.730;11.566;2023-02-02T10:48:49;5.40;;;2.10;;
22144;SDS011;11238;48.730;11.566;2023-02-02T10:51:22;8.15;;;2.65;;
22144;SDS011;11238;48.730;11.566;2023-02-02T10:53:52;3.08;;;1.90;;
22144;SDS011;11238;48.730;11.566;2023-02-02T10:56:28;7.75;;;2.67;;
22144;SDS011;11238;48.730;11.566;2023-02-02T11:01:42;6.63;;;2.28;;
22144;SDS011;11238;48.730;11.566;2023-02-02T11:04:09;5.07;;;2.20;;
22144;SDS011;11238;48.730;11.566;2023-02-02T11:06:54;4.93;;;2.17;;
22144;SDS011;11238;48.730;11.566;2023-02-02T11:09:22;6.65;;;2.58;;
22144;SDS011;11238;48.730;11.566;2023-02-02T11:11:54;6.13;;;2.65;;
22144;SDS011;11238;48.730;11.566;2023-02-02T11:14:48;8.43;;;2.53;;
22144;SDS011;11238;48.730;11.566;2023-02-02T11:17:24;7.10;;;2.60;;
22144;SDS011;11238;48.730;11.566;2023-02-02T11:19:51;6.63;;;2.35;;
22144;SDS011;11238;48.730;11.566;2023-02-02T11:22:26;6.95;;;2.92;;
22144;SDS011;11238;48.730;11.566;2023-02-02T11:24:56;8.82;;;2.90;;
22144;SDS011;11238;48.730;11.566;2023-02-02T11:27:25;3.92;;;2.22;;
22144;SDS011;11238;48.730;11.566;2023-02-02T11:29:54;7.15;;;2.67;;
22144;SDS011;11238;48.730;11.566;2023-02-02T11:37:37;6.65;;;3.05;;
22144;SDS011;11238;48.730;11.566;2023-02-02T11:42:48;7.10;;;2.90;;
22144;SDS011;11238;48.730;11.566;2023-02-02T11:45:16;5.72;;;2.90;;
22144;SDS011;11238;48.730;11.566;2023-02-02T11:47:45;7.55;;;2.80;;
22144;SDS011;11238;48.730;11.566;2023-02-02T11:50:16;6.05;;;2.78;;
22144;SDS011;11238;48.730;11.566;2023-02-02T11:52:49;8.50;;;3.15;;
22144;SDS011;11238;48.730;11.566;2023-02-02T11:55:16;8.55;;;3.00;;
22144;SDS011;11238;48.730;11.566;2023-02-02T12:00:46;7.50;;;3.05;;
22144;SDS011;11238;48.730;11.566;2023-02-02T12:03:28;8.32;;;2.85;;
22144;SDS011;11238;48.730;11.566;2023-02-02T12:05:56;9.98;;;3.22;;
22144;SDS011;11238;48.730;11.566;2023-02-02T12:08:22;6.25;;;3.25;;
22144;SDS011;11238;48.730;11.566;2023-02-02T12:10:59;7.70;;;2.78;;
22144;SDS011;11238;48.730;11.566;2023-02-02T12:18:46;5.85;;;2.80;;
22144;SDS011;11238;48.730;11.566;2023-02-02T12:21:47;6.43;;;2.78;;
22144;SDS011;11238;48.730;11.566;2023-02-02T12:24:40;5.55;;;2.95;;
22144;SDS011;11238;48.730;11.566;2023-02-02T12:27:45;5.00;;;2.72;;
22144;SDS011;11238;48.730;11.566;2023-02-02T12:33:16;5.13;;;2.88;;
22144;SDS011;11238;48.730;11.566;2023-02-02T12:44:53;6.43;;;2.60;;
22144;SDS011;11238;48.730;11.566;2023-02-02T12:50:30;5.28;;;2.70;;
22144;SDS011;11238;48.730;11.566;2023-02-02T12:53:15;6.80;;;2.65;;
22144;SDS011;11238;48.730;11.566;2023-02-02T12:58:42;5.90;;;2.88;;
22144;SDS011;11238;48.730;11.566;2023-02-02T13:12:25;8.02;;;2.80;;
22144;SDS011;11238;48.730;11.566;2023-02-02T13:15:03;5.45;;;2.92;;
22144;SDS011;11238;48.730;11.566;2023-02-02T13:17:37;3.45;;;2.33;;
22144;SDS011;11238;48.730;11.566;2023-02-02T13:20:15;5.90;;;2.40;;
22144;SDS011;11238;48.730;11.566;2023-02-02T13:22:46;4.72;;;2.10;;
22144;SDS011;11238;48.730;11.566;2023-02-02T13:25:18;8.02;;;2.28;;
22144;SDS011;11238;48.730;11.566;2023-02-02T13:27:51;3.65;;;1.80;;
22144;SDS011;11238;48.730;11.566;2023-02-02T13:36:01;4.18;;;2.15;;
22144;SDS011;11238;48.730;11.566;2023-02-02T13:38:32;4.40;;;1.80;;
22144;SDS011;11238;48.730;11.566;2023-02-02T13:41:00;5.18;;;1.88;;
22144;SDS011;11238;48.730;11.566;2023-02-02T13:43:45;4.93;;;1.92;;
22144;SDS011;11238;48.730;11.566;2023-02-02T13:46:41;1.98;;;1.60;;
22144;SDS011;11238;48.730;11.566;2023-02-02T13:49:15;2.30;;;1.80;;
22144;SDS011;11238;48.730;11.566;2023-02-02T14:00:29;3.38;;;1.95;;
22144;SDS011;11238;48.730;11.566;2023-02-02T14:03:00;3.38;;;1.63;;
22144;SDS011;11238;48.730;11.566;2023-02-02T14:05:47;2.50;;;1.60;;
22144;SDS011;11238;48.730;11.566;2023-02-02T14:08:35;2.13;;;1.50;;
22144;SDS011;11238;48.730;11.566;2023-02-02T14:11:02;2.45;;;1.40;;
22144;SDS011;11238;48.730;11.566;2023-02-02T14:16:23;2.45;;;1.58;;
22144;SDS011;11238;48.730;11.566;2023-02-02T14:19:05;2.33;;;1.50;;
22144;SDS011;11238;48.730;11.566;2023-02-02T14:29:34;6.18;;;1.75;;
22144;SDS011;11238;48.730;11.566;2023-02-02T14:34:58;3.65;;;1.70;;
22144;SDS011;11238;48.730;11.566;2023-02-02T14:37:34;4.88;;;1.90;;
22144;SDS011;11238;48.730;11.566;2023-02-02T14:48:46;5.60;;;2.08;;
22144;SDS011;11238;48.730;11.566;2023-02-02T14:51:20;3.17;;;1.95;;
22144;SDS011;11238;48.730;11.566;2023-02-02T14:53:52;3.75;;;2.08;;
22144;SDS011;11238;48.730;11.566;2023-02-02T14:56:21;4.53;;;2.08;;
22144;SDS011;11238;48.730;11.566;2023-02-02T14:59:04;4.70;;;2.20;;
22144;SDS011;11238;48.730;11.566;2023-02-02T15:01:32;6.28;;;2.35;;
22144;SDS011;11238;48.730;11.566;2023-02-02T15:06:30;6.07;;;1.95;;
22144;SDS011;11238;48.730;11.566;2023-02-02T15:17:04;4.70;;;1.80;;
22144;SDS011;11238;48.730;11.566;2023-02-02T15:19:38;3.25;;;1.83;;
22144;SDS011;11238;48.730;11.566;2023-02-02T15:24:49;6.25;;;1.83;;
22144;SDS011;11238;48.730;11.566;2023-02-02T15:27:17;4.18;;;1.73;;
22144;SDS011;11238;48.730;11.566;2023-02-02T15:29:45;4.75;;;1.80;;
22144;SDS011;11238;48.730;11.566;2023-02-02T15:32:17;3.00;;;1.80;;
22144;SDS011;11238;48.730;11.566;2023-02-02T15:34:47;4.72;;;1.90;;
22144;SDS011;11238;48.730;11.566;2023-02-02T15:37:19;5.68;;;1.90;;
22144;SDS011;11238;48.730;11.566;2023-02-02T15:39:52;4.75;;;2.00;;
22144;SDS011;11238;48.730;11.566;2023-02-02T15:47:53;6.63;;;1.83;;
22144;SDS011;11238;48.730;11.566;2023-02-02T15:50:20;3.28;;;2.20;;
22144;SDS011;11238;48.730;11.566;2023-02-02T15:52:47;4.00;;;2.15;;
22144;SDS011;11238;48.730;11.566;2023-02-02T15:55:28;3.55;;;2.00;;
22144;SDS011;11238;48.730;11.566;2023-02-02T15:57:58;4.95;;;1.95;;
22144;SDS011;11238;48.730;11.566;2023-02-02T16:00:32;5.07;;;2.30;;
22144;SDS011;11238;48.730;11.566;2023-02-02T16:03:01;2.53;;;2.20;;
22144;SDS011;11238;48.730;11.566;2023-02-02T16:08:02;4.30;;;2.10;;
22144;SDS011;11238;48.730;11.566;2023-02-02T16:10:32;3.28;;;2.47;;
22144;SDS011;11238;48.730;11.566;2023-02-02T16:12:59;4.13;;;2.35;;
22144;SDS011;11238;48.730;11.566;2023-02-02T16:15:26;4.53;;;2.55;;
22144;SDS011;11238;48.730;11.566;2023-02-02T16:17:56;3.60;;;2.33;;
22144;SDS011;11238;48.730;11.566;2023-02-02T16:20:32;4.15;;;2.30;;
22144;SDS011;11238;48.730;11.566;2023-02-02T16:23:01;5.57;;;2.45;;
22144;SDS011;11238;48.730;11.566;2023-02-02T16:25:32;4.30;;;2.58;;
22144;SDS011;11238;48.730;11.566;2023-02-02T16:28:01;4.28;;;2.42;;
22144;SDS011;11238;48.730;11.566;2023-02-02T16:30:32;4.30;;;2.40;;
22144;SDS011;11238;48.730;11.566;2023-02-02T16:35:55;5.78;;;2.58;;
22144;SDS011;11238;48.730;11.566;2023-02-02T16:38:22;4.32;;;2.63;;
22144;SDS011;11238;48.730;11.566;2023-02-02T16:41:06;4.25;;;2.72;;
22144;SDS011;11238;48.730;11.566;2023-02-02T16:43:34;5.32;;;2.80;;
22144;SDS011;11238;48.730;11.566;2023-02-02T16:46:09;5.93;;;2.88;;
22144;SDS011;11238;48.730;11.566;2023-02-02T17:06:45;9.68;;;3.60;;
22144;SDS011;11238;48.730;11.566;2023-02-02T17:18:59;5.18;;;3.40;;
22144;SDS011;11238;48.730;11.566;2023-02-02T17:21:39;7.18;;;3.60;;
22144;SDS011;11238;48.730;11.566;2023-02-02T17:24:05;10.25;;;3.40;;
22144;SDS011;11238;48.730;11.566;2023-02-02T17:26:31;7.28;;;3.75;;
22144;SDS011;11238;48.730;11.566;2023-02-02T17:28:56;9.15;;;4.00;;
22144;SDS011;11238;48.730;11.566;2023-02-02T17:31:45;8.43;;;3.60;;
22144;SDS011;11238;48.730;11.566;2023-02-02T17:34:13;6.28;;;3.50;;
22144;SDS011;11238;48.730;11.566;2023-02-02T17:36:42;7.93;;;3.75;;
22144;SDS011;11238;48.730;11.566;2023-02-02T17:39:18;5.45;;;3.58;;
22144;SDS011;11238;48.730;11.566;2023-02-02T17:41:51;5.80;;;3.22;;
22144;SDS011;11238;48.730;11.566;2023-02-02T17:44:26;6.20;;;3.55;;
22144;SDS011;11238;48.730;11.566;2023-02-02T17:46:55;9.00;;;3.92;;
22144;SDS011;11238;48.730;11.566;2023-02-02T17:49:20;7.63;;;3.58;;
22144;SDS011;11238;48.730;11.566;2023-02-02T17:51:46;7.80;;;3.78;;
22144;SDS011;11238;48.730;11.566;2023-02-02T17:54:15;6.13;;;3.88;;
22144;SDS011;11238;48.730;11.566;2023-02-02T17:57:03;8.88;;;4.07;;
22144;SDS011;11238;48.730;11.566;2023-02-02T17:59:29;8.52;;;3.83;;